sensor_id;sensor_type;location;lat;lon;timestamp;P1;durP1;ratioP1;P2;durP2;ratioP2
28836;SDS011;50669;50.982;11.022;2023-03-31T00:01:38;2.90;;;1.90;;
28836;SDS011;50669;50.982;11.022;2023-03-31T00:04:09;2.17;;;1.63;;
28836;SDS011;50669;50.982;11.022;2023-03-31T00:06:37;1.77;;;1.35;;
28836;SDS011;50669;50.982;11.022;2023-03-31T00:09:08;2.10;;;1.75;;
28836;SDS011;50669;50.982;11.022;2023-03-31T00:11:43;2.20;;;1.63;;
28836;SDS011;50669;50.982;11.022;2023-03-31T00:14:09;1.98;;;1.67;;
28836;SDS011;50669;50.982;11.022;2023-03-31T00:16:37;2.28;;;1.58;;
28836;SDS011;50669;50.982;11.022;2023-03-31T00:19:04;2.38;;;1.75;;
28836;SDS011;50669;50.982;11.022;2023-03-31T00:21:30;3.42;;;1.90;;
28836;SDS011;50669;50.982;11.022;2023-03-31T00:24:10;2.40;;;1.48;;
28836;SDS011;50669;50.982;11.022;2023-03-31T00:26:37;2.30;;;1.55;;
28836;SDS011;50669;50.982;11.022;2023-03-31T00:29:06;2.35;;;1.50;;
28836;SDS011;50669;50.982;11.022;2023-03-31T00:31:36;2.67;;;1.65;;
28836;SDS011;50669;50.982;11.022;2023-03-31T00:34:03;2.78;;;1.60;;
28836;SDS011;50669;50.982;11.022;2023-03-31T00:36:31;2.17;;;1.80;;
28836;SDS011;50669;50.982;11.022;2023-03-31T00:39:00;2.20;;;1.45;;
28836;SDS011;50669;50.982;11.022;2023-03-31T00:41:33;2.92;;;1.30;;
28836;SDS011;50669;50.982;11.022;2023-03-31T00:47:17;2.00;;;1.45;;
28836;SDS011;50669;50.982;11.022;2023-03-31T00:52:20;2.20;;;1.60;;
28836;SDS011;50669;50.982;11.022;2023-03-31T00:54:53;2.20;;;1.60;;
28836;SDS011;50669;50.982;11.022;2023-03-31T00:57:22;2.30;;;1.65;;
28836;SDS011;50669;50.982;11.022;2023-03-31T00:59:52;2.45;;;1.42;;
28836;SDS011;50669;50.982;11.022;2023-03-31T01:02:27;2.03;;;1.55;;
28836;SDS011;50669;50.982;11.022;2023-03-31T01:04:54;2.08;;;1.67;;
28836;SDS011;50669;50.982;11.022;2023-03-31T01:07:36;2.20;;;1.52;;
28836;SDS011;50669;50.982;11.022;2023-03-31T01:10:08;2.83;;;1.90;;
28836;SDS011;50669;50.982;11.022;2023-03-31T01:12:39;2.63;;;1.90;;
28836;SDS011;50669;50.982;11.022;2023-03-31T01:15:10;1.80;;;1.38;;
28836;SDS011;50669;50.982;11.022;2023-03-31T01:17:36;2.10;;;1.55;;
28836;SDS011;50669;50.982;11.022;2023-03-31T01:45:00;1.70;;;1.30;;
28836;SDS011;50669;50.982;11.022;2023-03-31T01:48:00;2.38;;;1.63;;
28836;SDS011;50669;50.982;11.022;2023-03-31T01:50:43;2.03;;;1.58;;
28836;SDS011;50669;50.982;11.022;2023-03-31T01:56:10;1.58;;;1.20;;
28836;SDS011;50669;50.982;11.022;2023-03-31T01:59:28;2.72;;;1.48;;
28836;SDS011;50669;50.982;11.022;2023-03-31T02:01:48;1.80;;;1.50;;
28836;SDS011;50669;50.982;11.022;2023-03-31T02:04:35;2.05;;;1.42;;
28836;SDS011;50669;50.982;11.022;2023-03-31T02:07:13;1.85;;;1.30;;
28836;SDS011;50669;50.982;11.022;2023-03-31T02:09:43;2.00;;;1.40;;
28836;SDS011;50669;50.982;11.022;2023-03-31T02:12:12;1.95;;;1.33;;
28836;SDS011;50669;50.982;11.022;2023-03-31T02:14:43;1.75;;;1.20;;
28836;SDS011;50669;50.982;11.022;2023-03-31T02:17:15;1.45;;;1.20;;
28836;SDS011;50669;50.982;11.022;2023-03-31T02:19:46;1.95;;;1.50;;
28836;SDS011;50669;50.982;11.022;2023-03-31T02:22:17;1.67;;;1.30;;
28836;SDS011;50669;50.982;11.022;2023-03-31T02:24:46;1.75;;;1.30;;
28836;SDS011;50669;50.982;11.022;2023-03-31T02:29:45;2.28;;;1.50;;
28836;SDS011;50669;50.982;11.022;2023-03-31T02:34:43;1.83;;;1.42;;
28836;SDS011;50669;50.982;11.022;2023-03-31T02:37:08;1.92;;;1.20;;
28836;SDS011;50669;50.982;11.022;2023-03-31T02:39:35;1.45;;;1.25;;
28836;SDS011;50669;50.982;11.022;2023-03-31T02:42:03;1.55;;;1.13;;
28836;SDS011;50669;50.982;11.022;2023-03-31T02:44:34;1.23;;;1.10;;
28836;SDS011;50669;50.982;11.022;2023-03-31T02:47:02;2.00;;;1.40;;
28836;SDS011;50669;50.982;11.022;2023-03-31T02:49:29;2.13;;;1.45;;
28836;SDS011;50669;50.982;11.022;2023-03-31T02:52:02;1.45;;;1.20;;
28836;SDS011;50669;50.982;11.022;2023-03-31T02:54:39;1.95;;;1.20;;
28836;SDS011;50669;50.982;11.022;2023-03-31T03:00:47;2.15;;;1.40;;
28836;SDS011;50669;50.982;11.022;2023-03-31T03:06:25;1.95;;;1.60;;
28836;SDS011;50669;50.982;11.022;2023-03-31T03:11:58;1.80;;;1.20;;
28836;SDS011;50669;50.982;11.022;2023-03-31T03:14:43;1.92;;;1.30;;
28836;SDS011;50669;50.982;11.022;2023-03-31T03:17:38;1.70;;;1.27;;
28836;SDS011;50669;50.982;11.022;2023-03-31T03:20:09;2.03;;;1.20;;
28836;SDS011;50669;50.982;11.022;2023-03-31T03:22:40;1.30;;;1.00;;
28836;SDS011;50669;50.982;11.022;2023-03-31T03:25:09;1.63;;;1.08;;
28836;SDS011;50669;50.982;11.022;2023-03-31T03:27:36;1.85;;;1.45;;
28836;SDS011;50669;50.982;11.022;2023-03-31T03:30:06;1.73;;;1.20;;
28836;SDS011;50669;50.982;11.022;2023-03-31T03:32:34;1.92;;;1.23;;
28836;SDS011;50669;50.982;11.022;2023-03-31T03:35:00;1.42;;;1.02;;
28836;SDS011;50669;50.982;11.022;2023-03-31T03:37:26;1.95;;;1.33;;
28836;SDS011;50669;50.982;11.022;2023-03-31T03:39:53;2.50;;;1.38;;
28836;SDS011;50669;50.982;11.022;2023-03-31T03:42:19;2.03;;;1.30;;
28836;SDS011;50669;50.982;11.022;2023-03-31T03:44:45;1.77;;;0.98;;
28836;SDS011;50669;50.982;11.022;2023-03-31T03:47:10;1.40;;;1.20;;
28836;SDS011;50669;50.982;11.022;2023-03-31T03:49:36;2.53;;;1.40;;
28836;SDS011;50669;50.982;11.022;2023-03-31T03:52:04;1.83;;;1.45;;
28836;SDS011;50669;50.982;11.022;2023-03-31T03:54:30;2.10;;;1.55;;
28836;SDS011;50669;50.982;11.022;2023-03-31T03:56:56;1.35;;;1.02;;
28836;SDS011;50669;50.982;11.022;2023-03-31T03:59:24;2.15;;;1.20;;
28836;SDS011;50669;50.982;11.022;2023-03-31T04:01:52;1.25;;;1.10;;
28836;SDS011;50669;50.982;11.022;2023-03-31T04:04:20;1.15;;;1.00;;
28836;SDS011;50669;50.982;11.022;2023-03-31T04:06:48;1.63;;;1.17;;
28836;SDS011;50669;50.982;11.022;2023-03-31T04:09:16;1.35;;;1.25;;
28836;SDS011;50669;50.982;11.022;2023-03-31T04:11:42;2.08;;;1.40;;
28836;SDS011;50669;50.982;11.022;2023-03-31T04:14:07;1.65;;;1.15;;
28836;SDS011;50669;50.982;11.022;2023-03-31T04:16:33;1.65;;;1.15;;
28836;SDS011;50669;50.982;11.022;2023-03-31T04:18:59;1.33;;;1.08;;
28836;SDS011;50669;50.982;11.022;2023-03-31T04:21:30;1.00;;;0.90;;
28836;SDS011;50669;50.982;11.022;2023-03-31T04:24:01;1.98;;;1.20;;
28836;SDS011;50669;50.982;11.022;2023-03-31T04:26:29;1.45;;;1.05;;
28836;SDS011;50669;50.982;11.022;2023-03-31T04:29:09;1.77;;;1.13;;
28836;SDS011;50669;50.982;11.022;2023-03-31T04:31:42;1.65;;;1.35;;
28836;SDS011;50669;50.982;11.022;2023-03-31T04:34:11;1.58;;;0.95;;
28836;SDS011;50669;50.982;11.022;2023-03-31T04:36:40;1.70;;;1.00;;
28836;SDS011;50669;50.982;11.022;2023-03-31T04:39:11;1.35;;;0.93;;
28836;SDS011;50669;50.982;11.022;2023-03-31T04:41:37;1.65;;;1.20;;
28836;SDS011;50669;50.982;11.022;2023-03-31T04:44:06;1.83;;;1.20;;
28836;SDS011;50669;50.982;11.022;2023-03-31T04:46:34;1.23;;;1.08;;
28836;SDS011;50669;50.982;11.022;2023-03-31T04:49:02;1.20;;;1.10;;
28836;SDS011;50669;50.982;11.022;2023-03-31T04:51:29;1.35;;;1.20;;
28836;SDS011;50669;50.982;11.022;2023-03-31T04:53:55;1.50;;;1.20;;
28836;SDS011;50669;50.982;11.022;2023-03-31T04:56:23;1.55;;;1.00;;
28836;SDS011;50669;50.982;11.022;2023-03-31T04:58:49;1.35;;;1.00;;
28836;SDS011;50669;50.982;11.022;2023-03-31T05:01:16;1.08;;;0.98;;
28836;SDS011;50669;50.982;11.022;2023-03-31T05:03:47;1.20;;;1.02;;
28836;SDS011;50669;50.982;11.022;2023-03-31T05:06:13;1.23;;;1.02;;
28836;SDS011;50669;50.982;11.022;2023-03-31T05:08:39;1.33;;;1.10;;
28836;SDS011;50669;50.982;11.022;2023-03-31T05:11:08;1.30;;;1.10;;
28836;SDS011;50669;50.982;11.022;2023-03-31T05:13:36;1.83;;;1.27;;
28836;SDS011;50669;50.982;11.022;2023-03-31T05:16:09;1.40;;;1.10;;
28836;SDS011;50669;50.982;11.022;2023-03-31T05:18:39;1.50;;;1.10;;
28836;SDS011;50669;50.982;11.022;2023-03-31T05:21:12;2.17;;;1.00;;
28836;SDS011;50669;50.982;11.022;2023-03-31T05:23:42;1.42;;;1.10;;
28836;SDS011;50669;50.982;11.022;2023-03-31T05:26:11;1.65;;;1.20;;
28836;SDS011;50669;50.982;11.022;2023-03-31T05:28:37;1.40;;;0.90;;
28836;SDS011;50669;50.982;11.022;2023-03-31T05:31:04;2.20;;;1.48;;
28836;SDS011;50669;50.982;11.022;2023-03-31T05:33:36;1.50;;;1.17;;
28836;SDS011;50669;50.982;11.022;2023-03-31T05:36:15;1.65;;;0.90;;
28836;SDS011;50669;50.982;11.022;2023-03-31T05:38:41;1.70;;;1.20;;
28836;SDS011;50669;50.982;11.022;2023-03-31T05:41:12;1.80;;;1.13;;
28836;SDS011;50669;50.982;11.022;2023-03-31T05:43:43;1.65;;;1.00;;
28836;SDS011;50669;50.982;11.022;2023-03-31T05:46:08;1.92;;;1.33;;
28836;SDS011;50669;50.982;11.022;2023-03-31T05:48:34;2.08;;;1.15;;
28836;SDS011;50669;50.982;11.022;2023-03-31T05:51:03;1.52;;;1.00;;
28836;SDS011;50669;50.982;11.022;2023-03-31T05:53:29;1.35;;;0.98;;
28836;SDS011;50669;50.982;11.022;2023-03-31T05:55:58;1.38;;;1.23;;
28836;SDS011;50669;50.982;11.022;2023-03-31T05:58:26;1.60;;;1.05;;
28836;SDS011;50669;50.982;11.022;2023-03-31T06:00:59;1.73;;;1.40;;
28836;SDS011;50669;50.982;11.022;2023-03-31T06:03:32;2.03;;;1.23;;
28836;SDS011;50669;50.982;11.022;2023-03-31T06:05:58;1.48;;;1.08;;
28836;SDS011;50669;50.982;11.022;2023-03-31T06:08:24;1.50;;;0.93;;
28836;SDS011;50669;50.982;11.022;2023-03-31T06:10:49;1.63;;;1.00;;
28836;SDS011;50669;50.982;11.022;2023-03-31T06:13:16;1.98;;;1.23;;
28836;SDS011;50669;50.982;11.022;2023-03-31T06:15:41;1.13;;;0.90;;
28836;SDS011;50669;50.982;11.022;2023-03-31T06:18:09;1.30;;;0.75;;
28836;SDS011;50669;50.982;11.022;2023-03-31T06:20:37;1.30;;;1.10;;
28836;SDS011;50669;50.982;11.022;2023-03-31T06:23:03;1.20;;;0.80;;
28836;SDS011;50669;50.982;11.022;2023-03-31T06:25:33;1.45;;;0.93;;
28836;SDS011;50669;50.982;11.022;2023-03-31T06:28:02;1.73;;;0.95;;
28836;SDS011;50669;50.982;11.022;2023-03-31T06:30:30;2.75;;;1.30;;
28836;SDS011;50669;50.982;11.022;2023-03-31T06:32:56;2.47;;;1.30;;
28836;SDS011;50669;50.982;11.022;2023-03-31T06:35:22;0.80;;;0.70;;
28836;SDS011;50669;50.982;11.022;2023-03-31T06:37:50;1.65;;;1.05;;
28836;SDS011;50669;50.982;11.022;2023-03-31T06:40:16;1.67;;;0.98;;
28836;SDS011;50669;50.982;11.022;2023-03-31T06:42:42;1.45;;;1.02;;
28836;SDS011;50669;50.982;11.022;2023-03-31T06:45:08;1.20;;;0.82;;
28836;SDS011;50669;50.982;11.022;2023-03-31T06:47:36;1.15;;;0.85;;
28836;SDS011;50669;50.982;11.022;2023-03-31T06:50:05;1.15;;;0.90;;
28836;SDS011;50669;50.982;11.022;2023-03-31T06:52:33;1.33;;;1.00;;
28836;SDS011;50669;50.982;11.022;2023-03-31T06:54:59;1.30;;;0.93;;
28836;SDS011;50669;50.982;11.022;2023-03-31T06:57:25;1.00;;;0.80;;
28836;SDS011;50669;50.982;11.022;2023-03-31T06:59:51;1.48;;;1.00;;
28836;SDS011;50669;50.982;11.022;2023-03-31T07:02:17;1.70;;;1.05;;
28836;SDS011;50669;50.982;11.022;2023-03-31T07:04:43;1.60;;;1.00;;
28836;SDS011;50669;50.982;11.022;2023-03-31T07:07:09;1.10;;;1.00;;
28836;SDS011;50669;50.982;11.022;2023-03-31T07:09:35;1.75;;;0.98;;
28836;SDS011;50669;50.982;11.022;2023-03-31T07:12:01;1.33;;;1.05;;
28836;SDS011;50669;50.982;11.022;2023-03-31T07:14:29;1.08;;;0.82;;
28836;SDS011;50669;50.982;11.022;2023-03-31T07:16:56;1.50;;;1.00;;
28836;SDS011;50669;50.982;11.022;2023-03-31T07:19:24;1.35;;;0.80;;
28836;SDS011;50669;50.982;11.022;2023-03-31T07:21:54;1.33;;;0.90;;
28836;SDS011;50669;50.982;11.022;2023-03-31T07:24:20;1.35;;;0.90;;
28836;SDS011;50669;50.982;11.022;2023-03-31T07:26:49;1.75;;;1.23;;
28836;SDS011;50669;50.982;11.022;2023-03-31T07:29:14;1.20;;;0.80;;
28836;SDS011;50669;50.982;11.022;2023-03-31T07:31:40;2.67;;;1.33;;
28836;SDS011;50669;50.982;11.022;2023-03-31T07:34:06;2.08;;;1.30;;
28836;SDS011;50669;50.982;11.022;2023-03-31T07:36:31;1.42;;;1.00;;
28836;SDS011;50669;50.982;11.022;2023-03-31T07:39:04;2.33;;;1.20;;
28836;SDS011;50669;50.982;11.022;2023-03-31T07:41:30;1.65;;;1.10;;
28836;SDS011;50669;50.982;11.022;2023-03-31T07:43:58;2.08;;;1.10;;
28836;SDS011;50669;50.982;11.022;2023-03-31T07:46:25;1.63;;;1.13;;
28836;SDS011;50669;50.982;11.022;2023-03-31T07:48:54;2.08;;;1.25;;
28836;SDS011;50669;50.982;11.022;2023-03-31T07:51:23;1.45;;;1.05;;
28836;SDS011;50669;50.982;11.022;2023-03-31T07:53:50;1.38;;;1.05;;
28836;SDS011;50669;50.982;11.022;2023-03-31T07:56:20;1.25;;;0.98;;
28836;SDS011;50669;50.982;11.022;2023-03-31T07:58:47;1.23;;;0.90;;
28836;SDS011;50669;50.982;11.022;2023-03-31T08:01:16;1.33;;;1.08;;
28836;SDS011;50669;50.982;11.022;2023-03-31T08:03:45;1.95;;;1.02;;
28836;SDS011;50669;50.982;11.022;2023-03-31T08:06:20;1.48;;;1.00;;
28836;SDS011;50669;50.982;11.022;2023-03-31T08:08:47;1.83;;;1.10;;
28836;SDS011;50669;50.982;11.022;2023-03-31T08:11:16;1.88;;;0.98;;
28836;SDS011;50669;50.982;11.022;2023-03-31T08:13:42;2.15;;;1.20;;
28836;SDS011;50669;50.982;11.022;2023-03-31T08:16:10;1.65;;;1.20;;
28836;SDS011;50669;50.982;11.022;2023-03-31T08:18:38;1.67;;;1.15;;
28836;SDS011;50669;50.982;11.022;2023-03-31T08:21:04;1.80;;;1.17;;
28836;SDS011;50669;50.982;11.022;2023-03-31T08:23:31;1.23;;;1.10;;
28836;SDS011;50669;50.982;11.022;2023-03-31T08:28:56;2.13;;;1.20;;
28836;SDS011;50669;50.982;11.022;2023-03-31T08:31:23;1.70;;;1.10;;
28836;SDS011;50669;50.982;11.022;2023-03-31T08:33:48;1.40;;;1.10;;
28836;SDS011;50669;50.982;11.022;2023-03-31T08:36:14;1.48;;;1.13;;
28836;SDS011;50669;50.982;11.022;2023-03-31T08:38:40;1.50;;;1.08;;
28836;SDS011;50669;50.982;11.022;2023-03-31T08:43:58;1.73;;;1.23;;
28836;SDS011;50669;50.982;11.022;2023-03-31T08:46:28;1.00;;;0.90;;
28836;SDS011;50669;50.982;11.022;2023-03-31T08:48:59;1.45;;;0.98;;
28836;SDS011;50669;50.982;11.022;2023-03-31T08:51:31;1.60;;;1.20;;
28836;SDS011;50669;50.982;11.022;2023-03-31T08:54:10;1.10;;;0.98;;
28836;SDS011;50669;50.982;11.022;2023-03-31T08:56:43;1.52;;;1.13;;
28836;SDS011;50669;50.982;11.022;2023-03-31T09:02:59;1.35;;;0.98;;
28836;SDS011;50669;50.982;11.022;2023-03-31T09:18:48;1.60;;;1.08;;
28836;SDS011;50669;50.982;11.022;2023-03-31T09:21:36;1.42;;;1.00;;
28836;SDS011;50669;50.982;11.022;2023-03-31T09:26:51;1.63;;;1.10;;
28836;SDS011;50669;50.982;11.022;2023-03-31T09:32:15;1.35;;;0.85;;
28836;SDS011;50669;50.982;11.022;2023-03-31T09:34:46;1.75;;;1.13;;
28836;SDS011;50669;50.982;11.022;2023-03-31T09:37:17;1.35;;;0.95;;
28836;SDS011;50669;50.982;11.022;2023-03-31T09:39:43;1.08;;;0.98;;
28836;SDS011;50669;50.982;11.022;2023-03-31T09:42:11;1.10;;;1.00;;
28836;SDS011;50669;50.982;11.022;2023-03-31T09:50:06;1.30;;;1.00;;
28836;SDS011;50669;50.982;11.022;2023-03-31T09:52:37;1.25;;;0.82;;
28836;SDS011;50669;50.982;11.022;2023-03-31T09:55:15;1.05;;;0.90;;
28836;SDS011;50669;50.982;11.022;2023-03-31T09:58:04;1.30;;;1.10;;
28836;SDS011;50669;50.982;11.022;2023-03-31T10:00:32;1.75;;;1.15;;
28836;SDS011;50669;50.982;11.022;2023-03-31T10:03:02;1.50;;;0.85;;
28836;SDS011;50669;50.982;11.022;2023-03-31T10:10:50;1.20;;;0.98;;
28836;SDS011;50669;50.982;11.022;2023-03-31T10:13:20;1.20;;;0.80;;
28836;SDS011;50669;50.982;11.022;2023-03-31T10:15:51;0.90;;;0.90;;
28836;SDS011;50669;50.982;11.022;2023-03-31T10:18:19;1.67;;;1.08;;
28836;SDS011;50669;50.982;11.022;2023-03-31T10:20:56;1.77;;;1.20;;
28836;SDS011;50669;50.982;11.022;2023-03-31T10:23:28;1.33;;;0.98;;
28836;SDS011;50669;50.982;11.022;2023-03-31T10:25:56;1.60;;;1.05;;
28836;SDS011;50669;50.982;11.022;2023-03-31T10:28:29;1.27;;;0.93;;
28836;SDS011;50669;50.982;11.022;2023-03-31T10:30:58;1.63;;;1.08;;
28836;SDS011;50669;50.982;11.022;2023-03-31T10:33:28;1.48;;;1.08;;
28836;SDS011;50669;50.982;11.022;2023-03-31T10:36:00;1.25;;;1.00;;
28836;SDS011;50669;50.982;11.022;2023-03-31T10:38:37;1.17;;;0.77;;
28836;SDS011;50669;50.982;11.022;2023-03-31T10:41:09;1.35;;;0.98;;
28836;SDS011;50669;50.982;11.022;2023-03-31T10:46:02;1.60;;;1.13;;
28836;SDS011;50669;50.982;11.022;2023-03-31T10:48:30;1.27;;;0.80;;
28836;SDS011;50669;50.982;11.022;2023-03-31T10:51:03;1.42;;;1.00;;
28836;SDS011;50669;50.982;11.022;2023-03-31T11:06:56;1.33;;;0.93;;
28836;SDS011;50669;50.982;11.022;2023-03-31T11:09:36;1.80;;;1.00;;
28836;SDS011;50669;50.982;11.022;2023-03-31T11:17:50;1.15;;;1.00;;
28836;SDS011;50669;50.982;11.022;2023-03-31T11:20:24;1.73;;;1.10;;
28836;SDS011;50669;50.982;11.022;2023-03-31T11:31:12;1.50;;;1.10;;
28836;SDS011;50669;50.982;11.022;2023-03-31T11:37:14;2.53;;;1.20;;
28836;SDS011;50669;50.982;11.022;2023-03-31T11:42:40;1.75;;;1.35;;
28836;SDS011;50669;50.982;11.022;2023-03-31T11:45:15;1.05;;;0.80;;
28836;SDS011;50669;50.982;11.022;2023-03-31T11:47:45;1.90;;;0.93;;
28836;SDS011;50669;50.982;11.022;2023-03-31T11:50:15;1.73;;;1.20;;
28836;SDS011;50669;50.982;11.022;2023-03-31T11:52:53;1.63;;;1.00;;
28836;SDS011;50669;50.982;11.022;2023-03-31T11:55:22;1.42;;;1.00;;
28836;SDS011;50669;50.982;11.022;2023-03-31T12:00:40;1.52;;;1.10;;
28836;SDS011;50669;50.982;11.022;2023-03-31T12:06:08;2.97;;;1.55;;
28836;SDS011;50669;50.982;11.022;2023-03-31T12:08:44;1.38;;;0.77;;
28836;SDS011;50669;50.982;11.022;2023-03-31T12:13:54;2.15;;;1.25;;
28836;SDS011;50669;50.982;11.022;2023-03-31T12:16:33;1.65;;;1.40;;
28836;SDS011;50669;50.982;11.022;2023-03-31T12:19:10;0.98;;;0.80;;
28836;SDS011;50669;50.982;11.022;2023-03-31T12:21:39;1.73;;;1.10;;
28836;SDS011;50669;50.982;11.022;2023-03-31T12:24:11;2.33;;;1.23;;
28836;SDS011;50669;50.982;11.022;2023-03-31T12:29:37;1.23;;;0.95;;
28836;SDS011;50669;50.982;11.022;2023-03-31T12:32:11;1.58;;;1.10;;
28836;SDS011;50669;50.982;11.022;2023-03-31T12:34:47;1.48;;;1.10;;
28836;SDS011;50669;50.982;11.022;2023-03-31T12:40:09;0.88;;;0.85;;
28836;SDS011;50669;50.982;11.022;2023-03-31T12:53:55;1.55;;;1.05;;
28836;SDS011;50669;50.982;11.022;2023-03-31T12:56:29;1.70;;;1.35;;
28836;SDS011;50669;50.982;11.022;2023-03-31T12:59:34;1.40;;;1.10;;
28836;SDS011;50669;50.982;11.022;2023-03-31T13:04:43;1.42;;;1.05;;
28836;SDS011;50669;50.982;11.022;2023-03-31T13:07:52;1.35;;;0.88;;
28836;SDS011;50669;50.982;11.022;2023-03-31T13:12:38;1.67;;;1.00;;
28836;SDS011;50669;50.982;11.022;2023-03-31T13:15:04;1.23;;;1.02;;
28836;SDS011;50669;50.982;11.022;2023-03-31T13:17:37;1.58;;;1.10;;
28836;SDS011;50669;50.982;11.022;2023-03-31T13:20:14;1.10;;;1.00;;
28836;SDS011;50669;50.982;11.022;2023-03-31T13:22:59;1.52;;;1.00;;
28836;SDS011;50669;50.982;11.022;2023-03-31T13:33:30;1.23;;;0.90;;
28836;SDS011;50669;50.982;11.022;2023-03-31T13:39:10;1.58;;;1.05;;
28836;SDS011;50669;50.982;11.022;2023-03-31T13:41:48;1.25;;;0.90;;
28836;SDS011;50669;50.982;11.022;2023-03-31T13:44:32;1.88;;;1.15;;
28836;SDS011;50669;50.982;11.022;2023-03-31T14:01:21;1.30;;;1.02;;
28836;SDS011;50669;50.982;11.022;2023-03-31T14:09:42;1.85;;;1.25;;
28836;SDS011;50669;50.982;11.022;2023-03-31T14:14:56;1.60;;;0.98;;
28836;SDS011;50669;50.982;11.022;2023-03-31T14:17:23;1.50;;;0.95;;
28836;SDS011;50669;50.982;11.022;2023-03-31T14:28:28;1.23;;;1.00;;
28836;SDS011;50669;50.982;11.022;2023-03-31T14:36:44;1.40;;;1.02;;
28836;SDS011;50669;50.982;11.022;2023-03-31T14:39:16;2.30;;;1.10;;
28836;SDS011;50669;50.982;11.022;2023-03-31T14:41:51;1.58;;;0.95;;
28836;SDS011;50669;50.982;11.022;2023-03-31T14:44:20;1.48;;;1.25;;
28836;SDS011;50669;50.982;11.022;2023-03-31T14:46:49;1.45;;;1.08;;
28836;SDS011;50669;50.982;11.022;2023-03-31T14:51:52;1.65;;;1.33;;
28836;SDS011;50669;50.982;11.022;2023-03-31T14:54:24;1.33;;;1.13;;
28836;SDS011;50669;50.982;11.022;2023-03-31T14:56:53;1.50;;;1.10;;
28836;SDS011;50669;50.982;11.022;2023-03-31T14:59:24;1.35;;;1.08;;
28836;SDS011;50669;50.982;11.022;2023-03-31T15:01:53;1.42;;;1.10;;
28836;SDS011;50669;50.982;11.022;2023-03-31T15:04:22;1.80;;;1.00;;
28836;SDS011;50669;50.982;11.022;2023-03-31T15:06:53;1.27;;;0.88;;
28836;SDS011;50669;50.982;11.022;2023-03-31T15:09:27;1.20;;;0.95;;
28836;SDS011;50669;50.982;11.022;2023-03-31T15:11:56;1.85;;;1.17;;
28836;SDS011;50669;50.982;11.022;2023-03-31T15:14:36;1.35;;;1.00;;
28836;SDS011;50669;50.982;11.022;2023-03-31T15:17:24;1.13;;;0.90;;
28836;SDS011;50669;50.982;11.022;2023-03-31T15:19:54;1.40;;;1.08;;
28836;SDS011;50669;50.982;11.022;2023-03-31T15:22:26;1.52;;;1.30;;
28836;SDS011;50669;50.982;11.022;2023-03-31T15:24:54;1.48;;;1.25;;
28836;SDS011;50669;50.982;11.022;2023-03-31T15:29:58;1.23;;;0.90;;
28836;SDS011;50669;50.982;11.022;2023-03-31T15:32:26;1.83;;;1.25;;
28836;SDS011;50669;50.982;11.022;2023-03-31T15:34:56;1.45;;;1.10;;
28836;SDS011;50669;50.982;11.022;2023-03-31T15:42:55;1.90;;;1.25;;
28836;SDS011;50669;50.982;11.022;2023-03-31T15:48:17;1.60;;;1.40;;
28836;SDS011;50669;50.982;11.022;2023-03-31T15:53:54;1.88;;;1.33;;
28836;SDS011;50669;50.982;11.022;2023-03-31T15:56:27;2.00;;;1.33;;
28836;SDS011;50669;50.982;11.022;2023-03-31T16:01:36;1.50;;;1.20;;
28836;SDS011;50669;50.982;11.022;2023-03-31T16:04:07;1.88;;;1.30;;
28836;SDS011;50669;50.982;11.022;2023-03-31T16:06:46;1.50;;;1.20;;
28836;SDS011;50669;50.982;11.022;2023-03-31T16:09:20;1.83;;;1.38;;
28836;SDS011;50669;50.982;11.022;2023-03-31T16:12:04;1.52;;;1.10;;
28836;SDS011;50669;50.982;11.022;2023-03-31T16:14:53;1.88;;;1.52;;
28836;SDS011;50669;50.982;11.022;2023-03-31T16:19:56;1.55;;;1.42;;
28836;SDS011;50669;50.982;11.022;2023-03-31T16:22:29;2.08;;;1.55;;
28836;SDS011;50669;50.982;11.022;2023-03-31T16:25:01;2.33;;;1.50;;
28836;SDS011;50669;50.982;11.022;2023-03-31T16:27:35;1.80;;;1.40;;
28836;SDS011;50669;50.982;11.022;2023-03-31T16:30:06;1.60;;;1.40;;
28836;SDS011;50669;50.982;11.022;2023-03-31T16:33:01;2.10;;;1.60;;
28836;SDS011;50669;50.982;11.022;2023-03-31T16:35:38;1.88;;;1.50;;
28836;SDS011;50669;50.982;11.022;2023-03-31T16:38:06;2.47;;;1.63;;
28836;SDS011;50669;50.982;11.022;2023-03-31T16:40:34;2.30;;;1.60;;
28836;SDS011;50669;50.982;11.022;2023-03-31T16:45:46;2.75;;;1.70;;
28836;SDS011;50669;50.982;11.022;2023-03-31T16:48:14;1.98;;;1.60;;
28836;SDS011;50669;50.982;11.022;2023-03-31T16:50:41;2.42;;;1.70;;
28836;SDS011;50669;50.982;11.022;2023-03-31T16:53:07;2.42;;;1.90;;
28836;SDS011;50669;50.982;11.022;2023-03-31T16:55:34;2.15;;;1.67;;
28836;SDS011;50669;50.982;11.022;2023-03-31T16:58:02;2.22;;;1.80;;
28836;SDS011;50669;50.982;11.022;2023-03-31T17:00:32;3.05;;;1.75;;
28836;SDS011;50669;50.982;11.022;2023-03-31T17:03:01;2.60;;;1.80;;
28836;SDS011;50669;50.982;11.022;2023-03-31T17:05:28;3.25;;;1.92;;
28836;SDS011;50669;50.982;11.022;2023-03-31T17:07:58;2.50;;;1.77;;
28836;SDS011;50669;50.982;11.022;2023-03-31T17:10:28;2.72;;;2.10;;
28836;SDS011;50669;50.982;11.022;2023-03-31T17:12:54;2.30;;;1.70;;
28836;SDS011;50669;50.982;11.022;2023-03-31T17:15:25;1.77;;;1.50;;
28836;SDS011;50669;50.982;11.022;2023-03-31T17:17:53;2.85;;;2.15;;
28836;SDS011;50669;50.982;11.022;2023-03-31T17:20:22;3.13;;;2.20;;
28836;SDS011;50669;50.982;11.022;2023-03-31T17:22:51;3.28;;;2.05;;
28836;SDS011;50669;50.982;11.022;2023-03-31T17:25:19;3.47;;;2.13;;
28836;SDS011;50669;50.982;11.022;2023-03-31T17:27:45;2.63;;;2.00;;
28836;SDS011;50669;50.982;11.022;2023-03-31T17:30:14;2.55;;;2.15;;
28836;SDS011;50669;50.982;11.022;2023-03-31T17:32:39;3.00;;;2.30;;
28836;SDS011;50669;50.982;11.022;2023-03-31T17:35:08;1.85;;;1.60;;
28836;SDS011;50669;50.982;11.022;2023-03-31T17:37:34;2.63;;;2.10;;
28836;SDS011;50669;50.982;11.022;2023-03-31T17:40:01;3.25;;;2.30;;
28836;SDS011;50669;50.982;11.022;2023-03-31T17:42:30;2.47;;;1.80;;
28836;SDS011;50669;50.982;11.022;2023-03-31T17:44:58;3.25;;;2.05;;
28836;SDS011;50669;50.982;11.022;2023-03-31T17:47:26;3.25;;;2.40;;
28836;SDS011;50669;50.982;11.022;2023-03-31T17:49:54;2.60;;;2.00;;
28836;SDS011;50669;50.982;11.022;2023-03-31T17:52:19;3.80;;;2.60;;
28836;SDS011;50669;50.982;11.022;2023-03-31T17:54:45;2.33;;;1.95;;
28836;SDS011;50669;50.982;11.022;2023-03-31T17:57:10;2.40;;;2.13;;
28836;SDS011;50669;50.982;11.022;2023-03-31T17:59:36;2.40;;;2.17;;
28836;SDS011;50669;50.982;11.022;2023-03-31T18:02:02;3.08;;;2.53;;
28836;SDS011;50669;50.982;11.022;2023-03-31T18:04:30;3.30;;;2.50;;
28836;SDS011;50669;50.982;11.022;2023-03-31T18:07:00;2.47;;;1.95;;
28836;SDS011;50669;50.982;11.022;2023-03-31T18:09:26;3.40;;;2.20;;
28836;SDS011;50669;50.982;11.022;2023-03-31T18:11:52;2.85;;;2.22;;
28836;SDS011;50669;50.982;11.022;2023-03-31T18:14:17;3.13;;;2.40;;
28836;SDS011;50669;50.982;11.022;2023-03-31T18:16:43;2.60;;;2.15;;
28836;SDS011;50669;50.982;11.022;2023-03-31T18:19:08;3.30;;;2.75;;
28836;SDS011;50669;50.982;11.022;2023-03-31T18:21:37;2.97;;;2.20;;
28836;SDS011;50669;50.982;11.022;2023-03-31T18:24:03;3.50;;;2.22;;
28836;SDS011;50669;50.982;11.022;2023-03-31T18:26:28;3.05;;;2.25;;
28836;SDS011;50669;50.982;11.022;2023-03-31T18:28:56;2.63;;;2.30;;
28836;SDS011;50669;50.982;11.022;2023-03-31T18:31:23;2.90;;;2.30;;
28836;SDS011;50669;50.982;11.022;2023-03-31T18:33:53;3.28;;;2.60;;
28836;SDS011;50669;50.982;11.022;2023-03-31T18:36:19;3.50;;;2.55;;
28836;SDS011;50669;50.982;11.022;2023-03-31T18:38:49;3.42;;;2.88;;